Time;durP1;ratioP1;P1;durP2;ratioP2;P2;SDS_P1;SDS_P2;PMS_P1;PMS_P2;Temp;Humidity;BMP_temperature;BMP_pressure;BME280_temperature;BME280_humidity;BME280_pressure;Samples;Min_cycle;Max_cycle;Signal;HPM_P1;HPM_P2
2021/04/08 00:02:47;;;;;;;7.22;4.18;;;2.90;99.10;;;;;;6217068;28;20072;-79
2021/04/08 00:05:49;;;;;;;6.10;3.50;;;;;;;;;;6218641;28;20181;-79
2021/04/08 00:08:49;;;;;;;14.18;3.78;;;2.10;97.60;;;;;;6208799;28;20033;-79
2021/04/08 00:11:50;;;;;;;8.45;3.70;;;2.10;99.40;;;;;;6200266;28;20038;-79
2021/04/08 00:14:51;;;;;;;6.18;4.50;;;2.60;95.70;;;;;;6205076;28;20030;-79
2021/04/08 00:17:51;;;;;;;6.60;3.22;;;2.70;99.50;;;;;;6216278;28;20045;-79
2021/04/08 00:20:52;;;;;;;5.90;3.60;;;2.60;91.70;;;;;;6200134;28;20064;-79
2021/04/08 00:23:52;;;;;;;9.25;3.38;;;3.80;92.60;;;;;;6216565;28;20105;-79
2021/04/08 00:26:53;;;;;;;4.82;2.97;;;3.90;92.50;;;;;;6216802;28;20058;-79
2021/04/08 00:29:54;;;;;;;8.25;3.60;;;2.80;92.90;;;;;;6218276;28;20396;-79
2021/04/08 00:32:54;;;;;;;4.72;3.17;;;3.10;92.10;;;;;;6218002;28;20033;-79
2021/04/08 00:35:55;;;;;;;5.15;3.03;;;2.80;92.70;;;;;;6216500;28;20072;-79
2021/04/08 00:38:55;;;;;;;9.48;3.97;;;2.90;97.60;;;;;;6215830;28;20061;-79
2021/04/08 00:41:56;;;;;;;8.20;3.45;;;3.10;98.20;;;;;;6199582;28;20557;-79
2021/04/08 00:44:56;;;;;;;6.85;3.53;;;2.90;99.10;;;;;;6216245;28;20480;-79
2021/04/08 00:47:57;;;;;;;5.43;3.25;;;2.90;99.30;;;;;;6217892;28;20033;-79
2021/04/08 00:50:58;;;;;;;4.78;3.45;;;3.00;98.30;;;;;;6217726;28;20045;-79
2021/04/08 00:53:58;;;;;;;4.60;3.17;;;2.90;98.00;;;;;;6218242;28;20058;-79
2021/04/08 00:56:59;;;;;;;5.35;3.20;;;2.90;97.40;;;;;;6216452;28;20029;-79
2021/04/08 01:00:02;;;;;;;6.22;3.40;;;;;;;;;;6217186;28;20042;-79
2021/04/08 01:03:03;;;;;;;5.82;3.92;;;;;;;;;;6222292;28;20468;-79
2021/04/08 01:06:04;;;;;;;6.72;3.67;;;;;;;;;;6220517;28;20018;-79
2021/04/08 01:09:06;;;;;;;5.40;3.13;;;;;;;;;;6221277;28;20029;-79
2021/04/08 01:12:07;;;;;;;11.80;3.85;;;;;;;;;;6220764;28;20522;-79
2021/04/08 01:15:08;;;;;;;7.07;3.85;;;;;;;;;;6220871;28;20041;-79
2021/04/08 01:18:20;;;;;;;6.30;3.20;;;3.10;94.30;;;;;;6220508;28;20030;-79
2021/04/08 01:21:22;;;;;;;5.97;3.92;;;;;;;;;;6222096;28;20113;-79
2021/04/08 01:24:37;;;;;;;7.90;2.97;;;2.90;97.30;;;;;;6222245;28;20100;-79
2021/04/08 01:28:01;;;;;;;5.05;2.92;;;3.80;96.10;;;;;;6220321;28;20092;-79
2021/04/08 01:31:05;;;;;;;4.93;3.03;;;3.50;90.20;;;;;;6219822;28;20558;-79
2021/04/08 01:34:09;;;;;;;6.63;3.50;;;3.30;87.10;;;;;;6220054;28;20034;-79
2021/04/08 01:37:09;;;;;;;5.90;2.95;;;3.60;89.60;;;;;;6220088;28;20018;-79
2021/04/08 01:40:10;;;;;;;5.85;3.30;;;3.50;90.10;;;;;;6219775;28;20077;-79
2021/04/08 01:43:11;;;;;;;5.68;3.35;;;2.80;90.30;;;;;;6220245;28;20025;-79
2021/04/08 01:46:13;;;;;;;4.97;3.22;;;3.50;90.90;;;;;;6201897;28;20105;-79
2021/04/08 01:49:14;;;;;;;7.45;3.65;;;4.00;90.80;;;;;;6203663;28;20034;-79
2021/04/08 01:52:15;;;;;;;5.53;3.67;;;4.50;90.10;;;;;;6188352;28;20041;-79
2021/04/08 01:55:16;;;;;;;8.50;3.60;;;3.30;89.70;;;;;;6219629;28;20056;-79
2021/04/08 01:58:17;;;;;;;7.47;3.20;;;3.00;90.80;;;;;;6219399;28;20029;-79
2021/04/08 02:01:18;;;;;;;6.85;3.20;;;3.10;91.10;;;;;;6219806;28;20477;-79
2021/04/08 02:04:19;;;;;;;8.43;3.42;;;2.80;90.30;;;;;;6215880;28;20038;-79
2021/04/08 02:07:20;;;;;;;8.13;3.03;;;3.40;90.90;;;;;;6187688;28;20112;-79
2021/04/08 02:10:21;;;;;;;5.05;3.10;;;3.40;90.80;;;;;;6219361;28;20624;-79
2021/04/08 02:13:21;;;;;;;7.15;3.22;;;3.00;90.80;;;;;;6186498;28;20034;-78
2021/04/08 02:16:22;;;;;;;6.63;3.28;;;3.20;90.50;;;;;;6219417;28;20472;-79
2021/04/08 02:19:22;;;;;;;6.07;3.05;;;3.00;91.00;;;;;;6218818;28;20056;-79
2021/04/08 02:22:23;;;;;;;6.53;3.13;;;3.00;90.40;;;;;;6218612;28;20053;-79
2021/04/08 02:25:24;;;;;;;4.80;3.33;;;3.30;90.90;;;;;;6219420;28;20029;-80
2021/04/08 02:28:28;;;;;;;5.75;3.88;;;2.80;91.40;;;;;;6218526;28;20519;-79
2021/04/08 02:31:38;;;;;;;5.75;3.00;;;2.70;98.60;;;;;;6218807;28;20042;-79
2021/04/08 02:34:39;;;;;;;5.13;3.20;;;3.30;91.60;;;;;;6218588;28;20384;-79
2021/04/08 02:37:40;;;;;;;7.28;3.50;;;3.00;98.20;;;;;;6220445;28;20080;-79
2021/04/08 02:40:40;;;;;;;6.07;3.03;;;2.90;98.90;;;;;;6218163;28;20602;-79
2021/04/08 02:43:41;;;;;;;5.28;3.30;;;2.50;98.10;;;;;;6218885;28;20030;-79
2021/04/08 02:46:42;;;;;;;4.80;2.88;;;2.50;98.20;;;;;;6218099;28;20030;-79
2021/04/08 02:49:42;;;;;;;5.72;3.05;;;2.40;98.70;;;;;;6218634;28;20042;-79
2021/04/08 02:53:03;;;;;;;5.63;3.38;;;2.70;98.70;;;;;;6218465;28;20084;-79
2021/04/08 02:56:29;;;;;;;6.38;3.00;;;2.40;95.70;;;;;;6218362;28;20503;-78
2021/04/08 02:59:47;;;;;;;5.63;2.88;;;2.50;95.10;;;;;;6219355;28;20038;-79
2021/04/08 03:02:48;;;;;;;6.55;3.05;;;;;;;;;;6218375;28;20393;-79
2021/04/08 03:05:49;;;;;;;4.05;2.80;;;;;;;;;;6217983;28;20056;-79
2021/04/08 03:08:53;;;;;;;6.68;3.35;;;2.60;97.10;;;;;;6201781;28;20419;-79
2021/04/08 03:11:54;;;;;;;5.13;2.67;;;;;;;;;;6217937;28;20060;-79
2021/04/08 03:14:56;;;;;;;4.50;3.25;;;2.40;95.90;;;;;;6217576;28;20026;-79
2021/04/08 03:17:57;;;;;;;8.55;4.20;;;2.60;91.70;;;;;;6201709;28;20450;-79
2021/04/08 03:20:58;;;;;;;5.72;3.60;;;2.50;93.40;;;;;;6217966;28;20400;-79
2021/04/08 03:23:59;;;;;;;7.10;3.70;;;2.50;94.40;;;;;;6186227;28;20061;-79
2021/04/08 03:27:01;;;;;;;5.13;3.65;;;2.80;94.80;;;;;;6217776;28;20065;-79
2021/04/08 03:30:02;;;;;;;7.13;3.97;;;2.40;95.10;;;;;;6217668;28;20038;-79
2021/04/08 03:33:03;;;;;;;4.70;3.20;;;2.30;96.50;;;;;;6217323;28;20072;-79
2021/04/08 03:36:05;;;;;;;7.20;4.85;;;2.30;96.80;;;;;;6217906;28;20026;-79
2021/04/08 03:39:06;;;;;;;6.57;3.47;;;2.20;97.80;;;;;;6201741;28;20061;-79
2021/04/08 03:42:10;;;;;;;5.70;3.53;;;3.50;98.90;;;;;;6200896;28;20029;-79
2021/04/08 03:45:11;;;;;;;7.05;4.97;;;2.00;98.60;;;;;;6217516;28;20125;-79
2021/04/08 03:48:13;;;;;;;7.13;3.58;;;2.00;99.00;;;;;;6217240;28;20034;-79
2021/04/08 03:51:13;;;;;;;6.00;3.50;;;1.80;98.50;;;;;;6214260;28;20469;-79
2021/04/08 03:54:15;;;;;;;6.05;3.55;;;2.70;98.40;;;;;;6185694;28;20042;-79
2021/04/08 03:57:19;;;;;;;8.95;3.95;;;2.40;99.90;;;;;;6217024;28;20105;-79
2021/04/08 04:00:20;;;;;;;6.50;3.80;;;2.20;99.90;;;;;;6216994;28;20042;-79
2021/04/08 04:03:21;;;;;;;6.38;4.15;;;;;;;;;;6219156;28;20034;-79
2021/04/08 04:06:22;;;;;;;9.10;3.83;;;1.70;99.90;;;;;;6216747;28;20098;-78
2021/04/08 04:09:22;;;;;;;5.88;3.60;;;1.50;99.90;;;;;;6217265;28;20524;-79
2021/04/08 04:12:23;;;;;;;9.20;3.60;;;3.00;99.90;;;;;;6216975;28;20036;-79
2021/04/08 04:15:24;;;;;;;8.55;4.28;;;2.10;99.90;;;;;;6217186;28;20037;-79
2021/04/08 04:18:24;;;;;;;4.03;3.50;;;1.60;99.90;;;;;;6200932;28;20040;-79
2021/04/08 04:21:25;;;;;;;6.68;4.43;;;1.60;99.90;;;;;;6201358;28;20034;-79
2021/04/08 04:24:25;;;;;;;6.70;3.50;;;1.90;99.90;;;;;;6216964;28;20030;-79
2021/04/08 04:27:26;;;;;;;7.32;4.13;;;1.50;99.90;;;;;;6217208;28;20030;-79
2021/04/08 04:30:27;;;;;;;6.15;4.35;;;2.10;99.90;;;;;;6218313;28;20033;-78
2021/04/08 04:33:27;;;;;;;9.93;5.53;;;1.50;99.90;;;;;;6216839;28;20034;-79
2021/04/08 04:36:28;;;;;;;9.60;5.28;;;1.90;99.90;;;;;;6220360;28;20053;-79
2021/04/08 04:39:29;;;;;;;26.63;14.18;;;1.50;99.90;;;;;;6221361;28;20042;-79
2021/04/08 04:42:30;;;;;;;10.15;3.90;;;2.00;99.90;;;;;;6223295;28;20029;-79
2021/04/08 04:45:30;;;;;;;8.38;4.22;;;1.50;99.90;;;;;;6205290;28;20448;-79
2021/04/08 04:48:31;;;;;;;6.97;4.47;;;1.50;99.90;;;;;;6205217;28;20038;-79
2021/04/08 04:51:32;;;;;;;6.07;4.05;;;1.90;99.90;;;;;;6221478;28;20045;-79
2021/04/08 04:54:33;;;;;;;5.55;3.85;;;;;;;;;;6223187;28;20366;-79
2021/04/08 04:57:33;;;;;;;4.45;3.65;;;1.60;99.90;;;;;;6208278;28;20029;-79
2021/04/08 05:00:34;;;;;;;8.70;4.30;;;1.40;99.90;;;;;;6221185;28;20494;-79
2021/04/08 05:03:35;;;;;;;12.32;4.30;;;1.30;99.90;;;;;;6221089;28;20037;-78
2021/04/08 05:06:35;;;;;;;6.82;3.92;;;1.50;99.90;;;;;;6221420;28;20032;-79
2021/04/08 05:09:36;;;;;;;9.73;4.13;;;1.40;99.90;;;;;;6221110;28;20060;-79
2021/04/08 05:12:36;;;;;;;9.43;4.90;;;1.50;99.90;;;;;;6220381;28;20029;-78
2021/04/08 05:15:37;;;;;;;8.43;4.95;;;1.50;99.90;;;;;;6220958;28;20105;-78
2021/04/08 05:18:38;;;;;;;10.38;5.00;;;;;;;;;;6222255;28;20076;-79
2021/04/08 05:21:39;;;;;;;7.05;3.83;;;;;;;;;;6222560;28;20029;-79
2021/04/08 05:24:40;;;;;;;8.23;4.63;;;;;;;;;;6220501;28;20026;-79
2021/04/08 05:27:41;;;;;;;8.90;5.30;;;;;;;;;;6236599;28;20080;-79
2021/04/08 05:30:42;;;;;;;6.65;4.32;;;;;;;;;;6222119;28;20435;-79
2021/04/08 05:33:43;;;;;;;5.85;4.18;;;;;;;;;;6220260;28;20041;-79
2021/04/08 05:36:43;;;;;;;5.13;3.92;;;1.60;99.90;;;;;;6222368;28;20033;-79
2021/04/08 05:39:44;;;;;;;8.10;4.13;;;1.50;99.90;;;;;;6203832;28;20093;-79
2021/04/08 05:42:45;;;;;;;6.80;3.80;;;1.80;99.90;;;;;;6219883;28;20034;-79
2021/04/08 05:45:46;;;;;;;6.30;4.43;;;1.70;99.90;;;;;;6220021;28;20357;-79
2021/04/08 05:48:46;;;;;;;8.88;5.03;;;2.00;99.90;;;;;;6220346;28;20061;-79
2021/04/08 05:51:47;;;;;;;7.75;5.50;;;1.90;99.90;;;;;;6213381;28;20045;-79
2021/04/08 05:54:47;;;;;;;9.20;5.18;;;1.80;99.90;;;;;;6220245;28;20034;-78
2021/04/08 05:57:48;;;;;;;6.70;4.40;;;2.10;99.90;;;;;;6221759;28;20030;-79
2021/04/08 06:00:48;;;;;;;6.75;4.45;;;1.70;99.90;;;;;;6188133;28;20871;-79
2021/04/08 06:03:49;;;;;;;13.30;8.00;;;2.00;99.90;;;;;;6220104;28;20034;-79
2021/04/08 06:06:49;;;;;;;8.00;5.35;;;2.80;99.90;;;;;;6203242;28;20030;-79
2021/04/08 06:09:50;;;;;;;7.22;4.10;;;2.20;99.90;;;;;;6204973;28;20111;-79
2021/04/08 06:12:51;;;;;;;9.40;4.22;;;2.10;99.90;;;;;;6219557;28;20053;-79
2021/04/08 06:15:52;;;;;;;5.63;3.85;;;2.90;99.90;;;;;;6206268;28;20030;-79
2021/04/08 06:18:53;;;;;;;8.38;5.25;;;3.50;99.90;;;;;;6203393;28;20028;-79
2021/04/08 06:21:53;;;;;;;4.70;3.55;;;2.40;99.90;;;;;;6187357;28;20038;-79
2021/04/08 06:24:54;;;;;;;7.40;3.72;;;3.60;99.90;;;;;;6221259;28;20037;-79
2021/04/08 06:27:55;;;;;;;6.70;4.25;;;4.10;99.90;;;;;;6219457;28;20034;-79
2021/04/08 06:30:55;;;;;;;6.50;4.35;;;3.80;99.90;;;;;;6187357;28;20038;-79
2021/04/08 06:33:57;;;;;;;8.57;4.70;;;2.60;99.90;;;;;;6220822;28;20045;-79
2021/04/08 06:36:58;;;;;;;9.27;5.50;;;4.00;99.90;;;;;;6219165;28;20030;-79
2021/04/08 06:39:59;;;;;;;12.32;6.15;;;2.80;99.90;;;;;;6187395;28;20096;-79
2021/04/08 06:43:00;;;;;;;8.48;5.10;;;4.50;99.90;;;;;;6219044;28;20025;-79
2021/04/08 06:46:01;;;;;;;7.90;4.70;;;3.30;99.90;;;;;;6208098;28;20137;-79
2021/04/08 06:49:36;;;;;;;5.85;4.30;;;3.20;98.80;;;;;;6186491;28;20028;-79
2021/04/08 06:52:37;;;;;;;8.25;4.53;;;3.40;97.70;;;;;;6220192;28;20040;-79
2021/04/08 06:55:37;;;;;;;9.00;5.18;;;4.30;98.80;;;;;;6202132;28;20465;-79
2021/04/08 06:58:40;;;;;;;8.77;4.45;;;4.20;97.80;;;;;;6218210;28;20037;-79
2021/04/08 07:01:40;;;;;;;6.50;3.90;;;3.80;97.30;;;;;;6202730;28;20033;-79
2021/04/08 07:04:41;;;;;;;7.35;4.60;;;4.30;99.90;;;;;;6202542;28;20034;-79
2021/04/08 07:07:42;;;;;;;5.05;3.40;;;4.30;96.40;;;;;;6202620;28;20416;-79
2021/04/08 07:10:42;;;;;;;10.10;4.30;;;4.60;95.50;;;;;;6186665;28;20038;-79
2021/04/08 07:13:43;;;;;;;10.27;6.68;;;5.10;94.00;;;;;;6218000;28;20030;-79
2021/04/08 07:16:43;;;;;;;17.60;7.22;;;4.70;93.60;;;;;;6218220;28;20137;-79
2021/04/08 07:19:45;;;;;;;9.95;5.57;;;5.10;93.90;;;;;;6218305;28;20092;-79
2021/04/08 07:22:45;;;;;;;7.55;4.47;;;5.80;93.30;;;;;;6218298;28;20032;-79
2021/04/08 07:26:04;;;;;;;8.27;4.03;;;6.40;90.60;;;;;;6217793;28;20045;-80
2021/04/08 07:29:04;;;;;;;8.48;3.53;;;7.40;87.90;;;;;;6217421;28;20072;-80
2021/04/08 07:32:09;;;;;;;6.63;3.47;;;6.80;84.40;;;;;;6219245;28;20046;-79
2021/04/08 07:35:16;;;;;;;9.27;3.60;;;6.50;82.30;;;;;;6219763;28;20036;-80
2021/04/08 07:38:17;;;;;;;6.95;3.40;;;6.70;77.90;;;;;;6219359;28;20030;-80
2021/04/08 07:41:29;;;;;;;5.65;4.15;;;7.00;77.30;;;;;;6185202;28;20580;-78
2021/04/08 07:44:29;;;;;;;9.17;3.37;;;7.20;72.70;;;;;;6186499;28;20112;-80
2021/04/08 07:47:37;;;;;;;5.85;3.65;;;7.10;75.50;;;;;;6217551;28;20051;-80
2021/04/08 07:50:39;;;;;;;9.05;3.92;;;7.20;72.70;;;;;;6201982;28;20034;-80
2021/04/08 07:53:39;;;;;;;6.90;3.88;;;7.20;72.20;;;;;;6200966;28;20116;-80
2021/04/08 07:56:40;;;;;;;7.90;3.90;;;;;;;;;;6201421;28;20034;-80
2021/04/08 07:59:41;;;;;;;8.82;3.83;;;7.80;83.90;;;;;;6217147;28;20484;-80
2021/04/08 08:02:42;;;;;;;7.85;4.05;;;8.70;71.30;;;;;;6217174;28;20610;-80
2021/04/08 08:05:45;;;;;;;4.82;3.90;;;9.00;86.10;;;;;;6208323;28;20116;-80
2021/04/08 08:08:49;;;;;;;5.57;3.85;;;9.20;87.70;;;;;;6216883;28;20022;-80
2021/04/08 08:11:51;;;;;;;5.05;3.70;;;9.80;84.20;;;;;;6216465;28;20030;-80
2021/04/08 08:14:51;;;;;;;4.87;3.47;;;;;;;;;;6219062;28;20049;-80
2021/04/08 08:17:53;;;;;;;5.85;4.07;;;10.20;83.60;;;;;;6233417;28;20060;-78
2021/04/08 08:21:10;;;;;;;6.00;3.80;;;10.80;82.50;;;;;;6217213;28;20065;-78
2021/04/08 08:24:11;;;;;;;5.57;4.30;;;10.90;62.60;;;;;;6211299;28;20030;-80
2021/04/08 08:27:12;;;;;;;10.93;4.18;;;12.40;60.50;;;;;;6217361;28;20451;-78
2021/04/08 08:30:16;;;;;;;7.15;4.38;;;13.50;58.50;;;;;;6214397;28;20041;-78
2021/04/08 08:33:18;;;;;;;5.43;3.50;;;14.20;52.60;;;;;;6200565;28;20026;-80
2021/04/08 08:37:05;;;;;;;10.30;4.18;;;14.50;53.50;;;;;;6184718;28;20468;-80
2021/04/08 08:40:07;;;;;;;6.28;3.80;;;16.10;48.80;;;;;;6217660;28;20128;-80
2021/04/08 08:43:08;;;;;;;6.20;3.90;;;15.40;62.70;;;;;;6200305;28;20034;-78
2021/04/08 08:46:08;;;;;;;6.38;3.42;;;15.60;65.90;;;;;;6198342;28;20037;-78
2021/04/08 08:49:09;;;;;;;5.60;3.63;;;15.50;51.60;;;;;;6184656;28;20081;-78
2021/04/08 08:52:22;;;;;;;8.73;4.25;;;15.60;51.10;;;;;;6216919;28;20053;-80
2021/04/08 08:55:23;;;;;;;3.92;3.08;;;15.70;48.90;;;;;;6200705;28;20464;-80
2021/04/08 08:58:24;;;;;;;4.65;3.22;;;15.10;52.20;;;;;;6200142;28;20034;-80
2021/04/08 09:01:24;;;;;;;5.82;3.42;;;13.50;48.50;;;;;;6168390;28;20078;-80
2021/04/08 09:04:25;;;;;;;4.95;3.30;;;12.30;50.10;;;;;;6216181;28;20034;-80
2021/04/08 09:07:25;;;;;;;5.43;3.10;;;12.40;52.40;;;;;;6209238;28;20033;-80
2021/04/08 09:10:30;;;;;;;4.57;3.00;;;12.80;50.50;;;;;;6216573;28;20041;-80
2021/04/08 09:13:31;;;;;;;5.85;3.40;;;12.30;48.80;;;;;;6186077;28;20021;-80
2021/04/08 09:16:41;;;;;;;5.88;3.63;;;13.20;49.80;;;;;;6216502;28;20033;-80
2021/04/08 09:19:41;;;;;;;5.10;3.50;;;13.90;49.70;;;;;;6216507;28;20710;-80
2021/04/08 09:22:56;;;;;;;4.10;3.22;;;14.60;49.70;;;;;;6219491;28;20029;-80
2021/04/08 09:25:57;;;;;;;5.40;3.15;;;14.90;42.00;;;;;;6220843;28;20775;-80
2021/04/08 09:28:57;;;;;;;3.45;3.00;;;15.40;45.00;;;;;;6207930;28;20029;-80
2021/04/08 09:32:24;;;;;;;7.88;3.20;;;15.40;48.80;;;;;;6220726;28;20120;-80
2021/04/08 09:35:27;;;;;;;6.97;3.40;;;14.10;47.20;;;;;;6222261;28;20034;-80
2021/04/08 09:38:28;;;;;;;5.68;2.92;;;11.20;48.90;;;;;;6220374;28;20054;-80
2021/04/08 09:41:45;;;;;;;4.53;3.30;;;11.60;50.10;;;;;;6221845;28;20053;-80
2021/04/08 09:44:46;;;;;;;5.78;3.42;;;10.90;49.20;;;;;;6220252;28;20036;-80
2021/04/08 09:47:46;;;;;;;4.68;3.03;;;11.00;53.20;;;;;;6221885;28;20065;-80
2021/04/08 09:51:30;;;;;;;5.28;3.28;;;11.00;52.30;;;;;;6220255;28;20042;-80
2021/04/08 09:55:00;;;;;;;5.63;3.00;;;11.90;67.00;;;;;;6222027;28;20037;-80
2021/04/08 09:58:04;;;;;;;6.13;3.33;;;11.80;49.80;;;;;;6220233;28;20045;-80
2021/04/08 10:01:07;;;;;;;3.58;2.97;;;11.60;46.60;;;;;;6220119;28;20037;-80
2021/04/08 10:04:21;;;;;;;5.15;3.55;;;12.00;48.30;;;;;;6219659;28;20180;-80
2021/04/08 10:07:22;;;;;;;4.70;3.10;;;12.00;44.40;;;;;;6203513;28;20045;-80
2021/04/08 10:10:43;;;;;;;4.38;3.05;;;12.20;48.80;;;;;;6203442;28;20393;-80
2021/04/08 10:13:43;;;;;;;3.40;2.97;;;11.80;48.60;;;;;;6187445;28;20056;-80
2021/04/08 10:16:44;;;;;;;6.97;3.15;;;11.40;67.30;;;;;;6219764;28;20038;-80
2021/04/08 10:19:45;;;;;;;5.93;3.42;;;11.90;51.00;;;;;;6219293;28;20030;-80
2021/04/08 10:22:45;;;;;;;4.95;3.10;;;11.40;47.50;;;;;;6219585;28;20036;-80
2021/04/08 10:25:46;;;;;;;3.67;3.08;;;11.70;50.00;;;;;;6218937;28;20069;-80
2021/04/08 10:28:56;;;;;;;5.18;3.30;;;12.60;49.60;;;;;;6219331;28;20069;-80
2021/04/08 10:31:57;;;;;;;5.50;3.58;;;13.70;45.80;;;;;;6220857;28;20575;-80
2021/04/08 10:34:57;;;;;;;4.78;3.28;;;14.60;48.80;;;;;;6220451;28;20087;-78
2021/04/08 10:37:58;;;;;;;5.70;3.00;;;15.00;46.50;;;;;;6202661;28;20025;-78
2021/04/08 10:41:00;;;;;;;6.50;3.50;;;15.40;44.40;;;;;;6220481;28;20050;-77
2021/04/08 10:44:25;;;;;;;4.80;3.20;;;15.40;37.10;;;;;;6218767;28;20017;-78
2021/04/08 10:47:27;;;;;;;5.13;3.85;;;16.00;39.90;;;;;;6220757;28;20061;-80
2021/04/08 10:50:27;;;;;;;4.85;3.42;;;15.00;55.80;;;;;;6218430;28;20104;-78
2021/04/08 10:53:28;;;;;;;10.57;5.45;;;15.20;40.10;;;;;;6202606;28;20030;-78
2021/04/08 10:56:28;;;;;;;6.15;4.57;;;14.60;45.00;;;;;;6218801;28;20376;-80
2021/04/08 10:59:30;;;;;;;6.22;4.03;;;14.50;45.30;;;;;;6218547;28;20034;-78
2021/04/08 11:02:40;;;;;;;6.57;3.78;;;14.90;43.30;;;;;;6217538;28;20065;-80
2021/04/08 11:05:41;;;;;;;5.43;3.60;;;15.30;41.70;;;;;;6218242;28;20030;-80
2021/04/08 11:08:48;;;;;;;9.35;3.72;;;14.80;44.20;;;;;;6218096;28;20542;-78
2021/04/08 11:11:53;;;;;;;4.75;3.28;;;14.40;45.00;;;;;;6218853;28;20046;-79
2021/04/08 11:14:57;;;;;;;8.30;3.85;;;14.60;45.90;;;;;;6217799;28;20489;-79
2021/04/08 11:18:05;;;;;;;4.68;3.35;;;14.60;40.60;;;;;;6187489;28;20105;-79
2021/04/08 11:21:28;;;;;;;7.68;3.83;;;14.50;57.20;;;;;;6217794;28;20084;-79
2021/04/08 11:24:32;;;;;;;5.90;3.55;;;15.80;44.70;;;;;;6217805;28;20614;-79
2021/04/08 11:27:36;;;;;;;4.63;4.15;;;14.70;46.70;;;;;;6218152;28;20495;-79
2021/04/08 11:30:39;;;;;;;7.65;3.75;;;14.70;44.10;;;;;;6201970;28;20547;-79
2021/04/08 11:33:39;;;;;;;7.65;3.50;;;14.90;43.90;;;;;;6186386;28;20054;-79
2021/04/08 11:36:40;;;;;;;5.38;3.47;;;15.20;45.80;;;;;;6186233;28;20034;-79
2021/04/08 11:39:41;;;;;;;5.38;4.10;;;15.60;44.60;;;;;;6217067;28;20145;-79
2021/04/08 11:42:41;;;;;;;6.43;3.70;;;15.60;43.60;;;;;;6201243;28;20030;-79
2021/04/08 11:45:42;;;;;;;4.32;3.67;;;15.80;41.60;;;;;;6217705;28;20030;-79
2021/04/08 11:48:44;;;;;;;5.90;3.80;;;15.50;39.20;;;;;;6200737;28;20176;-79
2021/04/08 11:51:45;;;;;;;4.28;3.47;;;15.30;41.70;;;;;;6200754;28;20045;-79
2021/04/08 11:55:02;;;;;;;4.10;3.40;;;15.10;54.10;;;;;;6217812;28;20033;-79
2021/04/08 11:58:13;;;;;;;5.03;3.90;;;14.80;35.70;;;;;;6217880;28;20022;-79
2021/04/08 12:01:15;;;;;;;6.53;3.92;;;14.10;42.60;;;;;;6217203;28;20468;-79
2021/04/08 12:04:16;;;;;;;;;;;14.00;46.00;;;;;;6218004;28;20033;-79
2021/04/08 12:07:19;;;;;;;9.00;4.05;;;14.20;45.10;;;;;;6232597;28;20408;-79
2021/04/08 12:10:23;;;;;;;6.35;3.60;;;14.20;46.70;;;;;;6200427;28;20389;-79
2021/04/08 12:13:24;;;;;;;8.70;3.97;;;14.30;64.10;;;;;;6217314;28;20033;-79
2021/04/08 12:16:25;;;;;;;6.55;3.72;;;14.60;46.60;;;;;;6217810;28;20037;-79
2021/04/08 12:19:26;;;;;;;6.53;5.13;;;14.30;69.40;;;;;;6186054;28;20018;-79
2021/04/08 12:22:27;;;;;;;6.40;4.05;;;;;;;;;;6184969;28;20068;-79
2021/04/08 12:25:28;;;;;;;8.20;4.50;;;;;;;;;;6217371;28;20376;-79
2021/04/08 12:28:28;;;;;;;4.55;3.90;;;14.30;50.90;;;;;;6207691;28;20113;-79
2021/04/08 12:31:29;;;;;;;4.80;4.03;;;14.00;43.90;;;;;;6200689;28;20038;-79
2021/04/08 12:34:29;;;;;;;6.60;3.90;;;13.80;42.00;;;;;;6202250;28;20029;-79
2021/04/08 12:37:30;;;;;;;5.47;3.80;;;14.00;42.70;;;;;;6216616;28;20041;-79
2021/04/08 12:40:31;;;;;;;7.40;3.90;;;13.50;38.10;;;;;;6184408;28;20081;-79
2021/04/08 12:43:32;;;;;;;7.10;4.10;;;13.50;44.40;;;;;;6216483;28;20033;-79
2021/04/08 12:46:33;;;;;;;7.50;3.70;;;13.20;40.30;;;;;;6214393;28;20026;-79
2021/04/08 12:49:33;;;;;;;4.40;3.53;;;13.60;42.70;;;;;;6200988;28;20445;-79
2021/04/08 12:52:34;;;;;;;5.60;4.20;;;13.70;41.70;;;;;;6184968;28;20046;-79
2021/04/08 12:55:35;;;;;;;6.10;3.80;;;14.20;41.20;;;;;;6200230;28;20030;-79
2021/04/08 12:58:35;;;;;;;4.35;3.95;;;13.70;41.20;;;;;;6221061;28;20057;-79
2021/04/08 13:01:36;;;;;;;5.95;4.18;;;13.60;43.50;;;;;;6222803;28;20396;-79
2021/04/08 13:04:36;;;;;;;6.55;3.70;;;13.70;42.10;;;;;;6221381;28;20069;-79
2021/04/08 13:07:37;;;;;;;8.40;6.57;;;13.70;42.20;;;;;;6189574;28;20026;-79
2021/04/08 13:10:38;;;;;;;5.00;3.67;;;13.80;42.40;;;;;;6221202;28;20053;-79
2021/04/08 13:13:39;;;;;;;6.90;4.30;;;13.70;40.70;;;;;;6220804;28;20117;-79
2021/04/08 13:16:40;;;;;;;6.20;4.30;;;13.70;46.10;;;;;;6220439;28;20084;-79
2021/04/08 13:19:42;;;;;;;6.05;4.20;;;14.80;43.00;;;;;;6221079;28;20022;-79
2021/04/08 13:22:42;;;;;;;12.73;5.90;;;13.90;45.90;;;;;;6220840;28;20480;-79
2021/04/08 13:25:43;;;;;;;9.70;5.25;;;13.70;44.40;;;;;;6220550;28;20032;-79
2021/04/08 13:28:44;;;;;;;16.05;6.88;;;13.80;44.50;;;;;;6220431;28;20037;-79
2021/04/08 13:31:44;;;;;;;11.27;5.10;;;13.70;46.10;;;;;;6220721;28;20046;-79
2021/04/08 13:34:45;;;;;;;9.00;4.15;;;13.90;43.30;;;;;;6204283;28;20116;-79
2021/04/08 13:37:45;;;;;;;6.53;4.28;;;13.90;43.80;;;;;;6220626;28;20029;-78
2021/04/08 13:40:46;;;;;;;9.55;4.90;;;13.80;41.60;;;;;;6203445;28;20482;-79
2021/04/08 13:43:49;;;;;;;8.80;4.97;;;13.60;44.80;;;;;;6204019;28;20026;-79
2021/04/08 13:46:50;;;;;;;5.88;4.45;;;13.40;43.50;;;;;;6222083;28;20033;-80
2021/04/08 13:49:51;;;;;;;5.05;4.22;;;13.50;43.60;;;;;;6188544;28;20022;-78
2021/04/08 13:52:51;;;;;;;8.25;4.03;;;13.50;39.90;;;;;;6203660;28;20032;-78
2021/04/08 13:55:52;;;;;;;7.75;6.72;;;13.30;41.50;;;;;;6221412;28;20026;-81
2021/04/08 13:58:53;;;;;;;6.65;4.10;;;13.20;40.70;;;;;;6219662;28;20112;-78
2021/04/08 14:01:53;;;;;;;8.07;5.00;;;13.00;40.10;;;;;;6219590;28;20117;-78
2021/04/08 14:04:54;;;;;;;6.75;4.60;;;12.80;40.80;;;;;;6220110;28;20113;-78
2021/04/08 14:07:57;;;;;;;6.35;4.25;;;12.80;41.00;;;;;;6194138;28;20049;-78
2021/04/08 14:10:58;;;;;;;8.52;5.45;;;12.00;38.20;;;;;;6203462;28;20042;-81
2021/04/08 14:14:02;;;;;;;6.50;5.00;;;12.40;43.80;;;;;;6219245;28;20518;-78
2021/04/08 14:17:03;;;;;;;6.95;4.65;;;12.40;46.80;;;;;;6203290;28;20038;-78
2021/04/08 14:20:04;;;;;;;5.80;4.40;;;12.60;45.50;;;;;;6187778;28;20115;-78
2021/04/08 14:23:05;;;;;;;5.93;4.17;;;12.70;62.30;;;;;;6219242;28;20025;-78
2021/04/08 14:26:06;;;;;;;5.60;4.00;;;12.80;46.00;;;;;;6209880;28;20026;-80
2021/04/08 14:29:07;;;;;;;6.60;3.97;;;12.90;46.80;;;;;;6202997;28;20460;-78
2021/04/08 14:32:08;;;;;;;6.03;4.50;;;13.00;62.00;;;;;;6202634;28;20088;-78
2021/04/08 14:35:10;;;;;;;5.18;4.18;;;13.00;75.50;;;;;;6203515;28;20033;-78
2021/04/08 14:38:12;;;;;;;4.55;4.10;;;13.10;65.60;;;;;;6218872;28;20026;-78
2021/04/08 14:41:12;;;;;;;6.40;4.00;;;12.70;69.30;;;;;;6218986;28;20121;-78
2021/04/08 14:44:13;;;;;;;6.80;4.35;;;12.70;64.50;;;;;;6220772;28;20033;-78
2021/04/08 14:47:13;;;;;;;5.18;4.28;;;13.10;73.10;;;;;;6203320;28;20436;-81
2021/04/08 14:50:14;;;;;;;8.77;5.03;;;12.60;71.10;;;;;;6218774;28;20486;-81
2021/04/08 14:53:15;;;;;;;6.60;4.40;;;12.40;74.90;;;;;;6187004;28;20034;-78
2021/04/08 14:56:15;;;;;;;6.50;3.83;;;12.60;74.50;;;;;;6218984;28;20088;-79
2021/04/08 14:59:16;;;;;;;6.07;4.60;;;12.50;74.00;;;;;;6218951;28;20060;-79
2021/04/08 15:02:16;;;;;;;7.90;4.25;;;12.70;71.70;;;;;;6218183;28;20494;-79
2021/04/08 15:05:20;;;;;;;7.43;4.70;;;12.90;71.70;;;;;;6218574;28;20041;-78
2021/04/08 15:08:21;;;;;;;8.32;5.07;;;;;;;;;;6220522;28;20080;-79
2021/04/08 15:11:22;;;;;;;7.15;4.15;;;12.60;71.10;;;;;;6220183;28;20038;-78
2021/04/08 15:14:23;;;;;;;7.40;4.40;;;;;;;;;;6204965;28;20472;-79
2021/04/08 15:17:23;;;;;;;6.32;4.28;;;11.70;72.10;;;;;;6220524;28;20364;-79
2021/04/08 15:20:24;;;;;;;5.40;4.20;;;;;;;;;;6194267;28;20042;-79
2021/04/08 15:23:25;;;;;;;18.00;6.53;;;11.50;70.20;;;;;;6217468;28;20030;-78
2021/04/08 15:26:26;;;;;;;7.38;4.25;;;11.70;75.00;;;;;;6201995;28;20060;-79
2021/04/08 15:29:27;;;;;;;5.90;3.90;;;;;;;;;;6219401;28;20030;-79
2021/04/08 15:32:28;;;;;;;7.35;3.95;;;12.30;58.10;;;;;;6234159;28;20038;-79
2021/04/08 15:35:28;;;;;;;5.10;4.32;;;12.00;72.60;;;;;;6217848;28;20037;-79
2021/04/08 15:38:29;;;;;;;7.40;4.25;;;12.10;56.40;;;;;;6217676;28;20045;-79
2021/04/08 15:41:30;;;;;;;9.18;4.97;;;12.10;57.00;;;;;;6202178;28;20495;-79
2021/04/08 15:44:30;;;;;;;5.22;4.22;;;11.60;60.80;;;;;;6185568;28;20022;-79
2021/04/08 15:47:31;;;;;;;6.97;4.05;;;11.70;44.80;;;;;;6218176;28;20460;-78
2021/04/08 15:50:32;;;;;;;5.75;4.10;;;11.60;44.10;;;;;;6217194;28;20133;-79
2021/04/08 15:53:33;;;;;;;6.35;5.43;;;;;;;;;;6219124;28;20041;-79
2021/04/08 15:56:33;;;;;;;5.15;3.97;;;11.40;40.50;;;;;;6218790;28;20080;-79
2021/04/08 15:59:34;;;;;;;5.95;4.07;;;11.30;44.80;;;;;;6219187;28;20034;-78
2021/04/08 16:02:34;;;;;;;7.03;4.20;;;11.30;45.10;;;;;;6185145;28;20034;-79
2021/04/08 16:05:35;;;;;;;18.50;13.60;;;11.30;45.40;;;;;;6210726;28;20449;-79
2021/04/08 16:08:36;;;;;;;11.73;6.95;;;11.60;46.20;;;;;;6217355;28;20089;-78